sensor_id;sensor_type;location;lat;lon;timestamp;temperature;humidity
52965;DHT22;42923;53.220;6.528;2023-07-13T00:02:16;15.20;99.90
52965;DHT22;42923;53.220;6.528;2023-07-13T00:04:42;15.20;99.90
52965;DHT22;42923;53.220;6.528;2023-07-13T00:07:08;15.20;99.90
52965;DHT22;42923;53.220;6.528;2023-07-13T00:09:34;15.20;99.90
52965;DHT22;42923;53.220;6.528;2023-07-13T00:12:01;15.20;99.90
52965;DHT22;42923;53.220;6.528;2023-07-13T00:14:29;15.30;99.90
52965;DHT22;42923;53.220;6.528;2023-07-13T00:16:55;15.30;99.90
52965;DHT22;42923;53.220;6.528;2023-07-13T00:19:21;15.30;99.90
52965;DHT22;42923;53.220;6.528;2023-07-13T00:21:47;15.40;99.90
52965;DHT22;42923;53.220;6.528;2023-07-13T00:24:15;15.50;99.90
52965;DHT22;42923;53.220;6.528;2023-07-13T00:26:44;15.50;99.90
52965;DHT22;42923;53.220;6.528;2023-07-13T00:29:13;15.60;99.90
52965;DHT22;42923;53.220;6.528;2023-07-13T00:31:39;15.60;99.90
52965;DHT22;42923;53.220;6.528;2023-07-13T00:34:05;15.70;99.90
52965;DHT22;42923;53.220;6.528;2023-07-13T00:36:31;15.70;99.90
52965;DHT22;42923;53.220;6.528;2023-07-13T00:38:58;15.80;99.90
52965;DHT22;42923;53.220;6.528;2023-07-13T00:41:24;15.80;99.90
52965;DHT22;42923;53.220;6.528;2023-07-13T00:43:49;15.80;99.90
52965;DHT22;42923;53.220;6.528;2023-07-13T00:48:48;15.90;99.90
52965;DHT22;42923;53.220;6.528;2023-07-13T00:51:17;15.90;99.90
52965;DHT22;42923;53.220;6.528;2023-07-13T00:53:44;15.90;99.90
52965;DHT22;42923;53.220;6.528;2023-07-13T00:56:10;15.80;99.90
52965;DHT22;42923;53.220;6.528;2023-07-13T00:58:37;15.80;99.90
52965;DHT22;42923;53.220;6.528;2023-07-13T01:01:03;15.80;99.90
52965;DHT22;42923;53.220;6.528;2023-07-13T01:03:29;15.80;99.90
52965;DHT22;42923;53.220;6.528;2023-07-13T01:05:55;15.80;99.90
52965;DHT22;42923;53.220;6.528;2023-07-13T01:08:22;15.70;99.90
52965;DHT22;42923;53.220;6.528;2023-07-13T01:10:52;15.70;99.90
52965;DHT22;42923;53.220;6.528;2023-07-13T01:13:18;15.70;99.90
52965;DHT22;42923;53.220;6.528;2023-07-13T01:15:47;15.60;99.90
52965;DHT22;42923;53.220;6.528;2023-07-13T01:18:20;15.60;99.90
52965;DHT22;42923;53.220;6.528;2023-07-13T01:23:20;15.50;99.90
52965;DHT22;42923;53.220;6.528;2023-07-13T01:25:48;15.50;99.90
52965;DHT22;42923;53.220;6.528;2023-07-13T01:28:14;15.50;99.90
52965;DHT22;42923;53.220;6.528;2023-07-13T01:30:43;15.50;99.90
52965;DHT22;42923;53.220;6.528;2023-07-13T01:33:16;15.50;99.90
52965;DHT22;42923;53.220;6.528;2023-07-13T01:35:43;15.40;99.90
52965;DHT22;42923;53.220;6.528;2023-07-13T01:38:10;15.50;99.90
52965;DHT22;42923;53.220;6.528;2023-07-13T01:40:37;15.50;99.90
52965;DHT22;42923;53.220;6.528;2023-07-13T01:43:03;15.50;99.90
52965;DHT22;42923;53.220;6.528;2023-07-13T01:45:29;15.50;99.90
52965;DHT22;42923;53.220;6.528;2023-07-13T01:47:55;15.50;99.90
52965;DHT22;42923;53.220;6.528;2023-07-13T01:50:21;15.50;99.90
52965;DHT22;42923;53.220;6.528;2023-07-13T01:52:47;15.50;99.90
52965;DHT22;42923;53.220;6.528;2023-07-13T01:55:13;15.50;99.90
52965;DHT22;42923;53.220;6.528;2023-07-13T01:57:40;15.60;99.90
52965;DHT22;42923;53.220;6.528;2023-07-13T02:00:09;15.60;99.90
52965;DHT22;42923;53.220;6.528;2023-07-13T02:02:46;15.60;99.90
52965;DHT22;42923;53.220;6.528;2023-07-13T02:05:13;15.60;99.90
52965;DHT22;42923;53.220;6.528;2023-07-13T02:07:40;15.60;99.90
52965;DHT22;42923;53.220;6.528;2023-07-13T02:10:08;15.50;99.90
52965;DHT22;42923;53.220;6.528;2023-07-13T02:12:34;15.50;99.90
52965;DHT22;42923;53.220;6.528;2023-07-13T02:15:01;15.50;99.90
52965;DHT22;42923;53.220;6.528;2023-07-13T02:17:28;15.50;99.90
52965;DHT22;42923;53.220;6.528;2023-07-13T02:19:54;15.40;99.90
52965;DHT22;42923;53.220;6.528;2023-07-13T02:22:20;15.40;99.90
52965;DHT22;42923;53.220;6.528;2023-07-13T02:24:45;15.40;99.90
52965;DHT22;42923;53.220;6.528;2023-07-13T02:27:11;15.40;99.90
52965;DHT22;42923;53.220;6.528;2023-07-13T02:29:37;15.40;99.90
52965;DHT22;42923;53.220;6.528;2023-07-13T02:32:03;15.30;99.90
52965;DHT22;42923;53.220;6.528;2023-07-13T02:34:29;15.30;99.90
52965;DHT22;42923;53.220;6.528;2023-07-13T02:36:55;15.20;99.90
52965;DHT22;42923;53.220;6.528;2023-07-13T02:39:21;15.20;99.90
52965;DHT22;42923;53.220;6.528;2023-07-13T02:41:47;15.20;99.90
52965;DHT22;42923;53.220;6.528;2023-07-13T02:44:13;15.10;99.90
52965;DHT22;42923;53.220;6.528;2023-07-13T02:46:40;15.10;99.90
52965;DHT22;42923;53.220;6.528;2023-07-13T02:49:06;15.00;99.90
52965;DHT22;42923;53.220;6.528;2023-07-13T02:51:32;15.00;99.90
52965;DHT22;42923;53.220;6.528;2023-07-13T02:54:03;14.90;99.90
52965;DHT22;42923;53.220;6.528;2023-07-13T02:56:31;14.90;99.90
52965;DHT22;42923;53.220;6.528;2023-07-13T02:58:57;14.90;99.90
52965;DHT22;42923;53.220;6.528;2023-07-13T03:01:24;14.80;99.90
52965;DHT22;42923;53.220;6.528;2023-07-13T03:03:50;14.80;99.90
52965;DHT22;42923;53.220;6.528;2023-07-13T03:06:18;14.70;99.90
52965;DHT22;42923;53.220;6.528;2023-07-13T03:08:48;14.70;99.90
52965;DHT22;42923;53.220;6.528;2023-07-13T03:11:17;14.70;99.90
52965;DHT22;42923;53.220;6.528;2023-07-13T03:13:45;14.60;99.90
52965;DHT22;42923;53.220;6.528;2023-07-13T03:16:13;14.60;99.90
52965;DHT22;42923;53.220;6.528;2023-07-13T03:18:43;14.60;99.90
52965;DHT22;42923;53.220;6.528;2023-07-13T03:21:11;14.60;99.90
52965;DHT22;42923;53.220;6.528;2023-07-13T03:23:38;14.50;99.90
52965;DHT22;42923;53.220;6.528;2023-07-13T03:26:08;14.50;99.90
52965;DHT22;42923;53.220;6.528;2023-07-13T03:28:34;14.50;99.90
52965;DHT22;42923;53.220;6.528;2023-07-13T03:31:11;14.50;99.90
52965;DHT22;42923;53.220;6.528;2023-07-13T03:33:37;14.50;99.90
52965;DHT22;42923;53.220;6.528;2023-07-13T03:36:05;14.50;99.90
52965;DHT22;42923;53.220;6.528;2023-07-13T03:38:31;14.50;99.90
52965;DHT22;42923;53.220;6.528;2023-07-13T03:40:58;14.60;99.90
52965;DHT22;42923;53.220;6.528;2023-07-13T03:43:25;14.70;99.90
52965;DHT22;42923;53.220;6.528;2023-07-13T03:45:52;14.80;99.90
52965;DHT22;42923;53.220;6.528;2023-07-13T03:48:18;14.90;99.90
52965;DHT22;42923;53.220;6.528;2023-07-13T03:50:44;14.90;99.90
52965;DHT22;42923;53.220;6.528;2023-07-13T03:53:10;15.00;99.90
52965;DHT22;42923;53.220;6.528;2023-07-13T03:55:36;15.00;99.90
52965;DHT22;42923;53.220;6.528;2023-07-13T04:00:56;15.10;99.90
52965;DHT22;42923;53.220;6.528;2023-07-13T04:03:23;15.20;99.90
52965;DHT22;42923;53.220;6.528;2023-07-13T04:05:49;15.20;99.90
52965;DHT22;42923;53.220;6.528;2023-07-13T04:08:16;15.20;99.90
52965;DHT22;42923;53.220;6.528;2023-07-13T04:10:42;15.20;99.90
52965;DHT22;42923;53.220;6.528;2023-07-13T04:13:08;15.20;99.90
52965;DHT22;42923;53.220;6.528;2023-07-13T04:15:34;15.20;99.90
52965;DHT22;42923;53.220;6.528;2023-07-13T04:18:00;15.20;99.90
52965;DHT22;42923;53.220;6.528;2023-07-13T04:20:26;15.10;99.90
52965;DHT22;42923;53.220;6.528;2023-07-13T04:22:52;15.10;99.90
52965;DHT22;42923;53.220;6.528;2023-07-13T04:25:21;15.10;99.90
52965;DHT22;42923;53.220;6.528;2023-07-13T04:27:47;15.10;99.90
52965;DHT22;42923;53.220;6.528;2023-07-13T04:30:12;15.10;99.90
52965;DHT22;42923;53.220;6.528;2023-07-13T04:32:38;15.10;99.90
52965;DHT22;42923;53.220;6.528;2023-07-13T04:35:05;15.20;99.90
52965;DHT22;42923;53.220;6.528;2023-07-13T04:37:30;15.20;99.90
52965;DHT22;42923;53.220;6.528;2023-07-13T04:39:56;15.20;99.90
52965;DHT22;42923;53.220;6.528;2023-07-13T04:42:22;15.20;99.90
52965;DHT22;42923;53.220;6.528;2023-07-13T04:44:51;15.30;99.90
52965;DHT22;42923;53.220;6.528;2023-07-13T04:47:18;15.30;99.90
52965;DHT22;42923;53.220;6.528;2023-07-13T04:49:45;15.40;99.90
52965;DHT22;42923;53.220;6.528;2023-07-13T04:52:11;15.40;99.90
52965;DHT22;42923;53.220;6.528;2023-07-13T04:54:37;15.40;99.90
52965;DHT22;42923;53.220;6.528;2023-07-13T04:57:04;15.50;99.90
52965;DHT22;42923;53.220;6.528;2023-07-13T04:59:32;15.50;99.90
52965;DHT22;42923;53.220;6.528;2023-07-13T05:01:58;15.60;99.90
52965;DHT22;42923;53.220;6.528;2023-07-13T05:04:24;15.60;99.90
52965;DHT22;42923;53.220;6.528;2023-07-13T05:06:50;15.70;99.90
52965;DHT22;42923;53.220;6.528;2023-07-13T05:09:16;15.80;99.90
52965;DHT22;42923;53.220;6.528;2023-07-13T05:11:43;15.90;99.90
52965;DHT22;42923;53.220;6.528;2023-07-13T05:14:09;15.90;99.90
52965;DHT22;42923;53.220;6.528;2023-07-13T05:16:35;16.00;99.90
52965;DHT22;42923;53.220;6.528;2023-07-13T05:19:02;16.00;99.90
52965;DHT22;42923;53.220;6.528;2023-07-13T05:21:28;16.00;99.90
52965;DHT22;42923;53.220;6.528;2023-07-13T05:23:54;16.10;99.90
52965;DHT22;42923;53.220;6.528;2023-07-13T05:26:20;16.10;99.90
52965;DHT22;42923;53.220;6.528;2023-07-13T05:28:46;16.20;99.90
52965;DHT22;42923;53.220;6.528;2023-07-13T05:31:12;16.20;99.90
52965;DHT22;42923;53.220;6.528;2023-07-13T05:33:39;16.30;99.90
52965;DHT22;42923;53.220;6.528;2023-07-13T05:36:05;16.40;99.90
52965;DHT22;42923;53.220;6.528;2023-07-13T05:38:31;16.40;99.90
52965;DHT22;42923;53.220;6.528;2023-07-13T05:40:57;16.50;99.90
52965;DHT22;42923;53.220;6.528;2023-07-13T05:43:23;16.50;99.90
52965;DHT22;42923;53.220;6.528;2023-07-13T05:45:52;16.50;99.90
52965;DHT22;42923;53.220;6.528;2023-07-13T05:48:18;16.60;99.90
52965;DHT22;42923;53.220;6.528;2023-07-13T05:50:44;16.70;99.90
52965;DHT22;42923;53.220;6.528;2023-07-13T05:53:11;16.70;99.90
52965;DHT22;42923;53.220;6.528;2023-07-13T05:55:41;16.80;99.90
52965;DHT22;42923;53.220;6.528;2023-07-13T05:58:07;16.90;99.90
52965;DHT22;42923;53.220;6.528;2023-07-13T06:00:33;17.00;99.90
52965;DHT22;42923;53.220;6.528;2023-07-13T06:02:59;17.10;99.90
52965;DHT22;42923;53.220;6.528;2023-07-13T06:05:25;17.10;99.90
52965;DHT22;42923;53.220;6.528;2023-07-13T06:07:51;17.20;99.90
52965;DHT22;42923;53.220;6.528;2023-07-13T06:10:16;17.30;99.90
52965;DHT22;42923;53.220;6.528;2023-07-13T06:12:42;17.40;99.90
52965;DHT22;42923;53.220;6.528;2023-07-13T06:15:08;17.40;99.90
52965;DHT22;42923;53.220;6.528;2023-07-13T06:17:34;17.50;99.90
52965;DHT22;42923;53.220;6.528;2023-07-13T06:20:00;17.60;99.90
52965;DHT22;42923;53.220;6.528;2023-07-13T06:22:26;17.70;99.90
52965;DHT22;42923;53.220;6.528;2023-07-13T06:24:52;17.80;99.90
52965;DHT22;42923;53.220;6.528;2023-07-13T06:27:18;17.80;99.90
52965;DHT22;42923;53.220;6.528;2023-07-13T06:29:44;17.80;99.90
52965;DHT22;42923;53.220;6.528;2023-07-13T06:32:10;17.90;99.90
52965;DHT22;42923;53.220;6.528;2023-07-13T06:34:36;18.00;99.90
52965;DHT22;42923;53.220;6.528;2023-07-13T06:37:02;18.00;99.90
52965;DHT22;42923;53.220;6.528;2023-07-13T06:39:28;18.10;99.90
52965;DHT22;42923;53.220;6.528;2023-07-13T06:41:54;18.20;99.90
52965;DHT22;42923;53.220;6.528;2023-07-13T06:44:19;18.30;99.90
52965;DHT22;42923;53.220;6.528;2023-07-13T06:46:45;18.50;99.90
52965;DHT22;42923;53.220;6.528;2023-07-13T06:49:11;18.60;99.90
52965;DHT22;42923;53.220;6.528;2023-07-13T06:51:37;18.70;99.90
52965;DHT22;42923;53.220;6.528;2023-07-13T06:54:03;18.70;99.90
52965;DHT22;42923;53.220;6.528;2023-07-13T06:56:29;18.80;99.90
52965;DHT22;42923;53.220;6.528;2023-07-13T06:58:55;18.80;99.90
52965;DHT22;42923;53.220;6.528;2023-07-13T07:01:20;18.80;99.90
52965;DHT22;42923;53.220;6.528;2023-07-13T07:03:46;19.00;99.90
52965;DHT22;42923;53.220;6.528;2023-07-13T07:06:20;19.30;99.90
52965;DHT22;42923;53.220;6.528;2023-07-13T07:08:49;19.60;99.90
52965;DHT22;42923;53.220;6.528;2023-07-13T07:11:21;19.90;99.90
52965;DHT22;42923;53.220;6.528;2023-07-13T07:13:51;20.20;99.90
52965;DHT22;42923;53.220;6.528;2023-07-13T07:16:18;20.50;99.90
52965;DHT22;42923;53.220;6.528;2023-07-13T07:18:45;20.60;99.90
52965;DHT22;42923;53.220;6.528;2023-07-13T07:21:11;20.50;99.90
52965;DHT22;42923;53.220;6.528;2023-07-13T07:23:37;20.40;99.90
52965;DHT22;42923;53.220;6.528;2023-07-13T07:26:03;20.10;99.90
52965;DHT22;42923;53.220;6.528;2023-07-13T07:28:29;19.80;99.90
52965;DHT22;42923;53.220;6.528;2023-07-13T07:30:57;19.60;99.90
52965;DHT22;42923;53.220;6.528;2023-07-13T07:33:24;19.50;99.90
52965;DHT22;42923;53.220;6.528;2023-07-13T07:35:50;19.60;99.90
52965;DHT22;42923;53.220;6.528;2023-07-13T07:38:16;19.80;99.90
52965;DHT22;42923;53.220;6.528;2023-07-13T07:40:43;19.90;99.90
52965;DHT22;42923;53.220;6.528;2023-07-13T07:43:10;20.00;99.90
52965;DHT22;42923;53.220;6.528;2023-07-13T07:45:36;20.10;99.90
52965;DHT22;42923;53.220;6.528;2023-07-13T07:48:04;20.20;99.90
52965;DHT22;42923;53.220;6.528;2023-07-13T07:50:31;20.20;99.90
52965;DHT22;42923;53.220;6.528;2023-07-13T07:52:57;20.20;99.90
52965;DHT22;42923;53.220;6.528;2023-07-13T07:55:23;20.20;99.90
52965;DHT22;42923;53.220;6.528;2023-07-13T07:57:49;20.10;99.90
52965;DHT22;42923;53.220;6.528;2023-07-13T08:00:16;20.00;99.90
52965;DHT22;42923;53.220;6.528;2023-07-13T08:02:44;19.80;99.90
52965;DHT22;42923;53.220;6.528;2023-07-13T08:05:10;19.70;99.90
52965;DHT22;42923;53.220;6.528;2023-07-13T08:07:37;19.50;99.90
52965;DHT22;42923;53.220;6.528;2023-07-13T08:10:05;19.40;99.90
52965;DHT22;42923;53.220;6.528;2023-07-13T08:12:36;19.30;99.90
52965;DHT22;42923;53.220;6.528;2023-07-13T08:15:02;19.30;99.90
52965;DHT22;42923;53.220;6.528;2023-07-13T08:17:28;19.30;99.90
52965;DHT22;42923;53.220;6.528;2023-07-13T08:19:55;19.40;99.90
52965;DHT22;42923;53.220;6.528;2023-07-13T08:22:20;19.60;99.90
52965;DHT22;42923;53.220;6.528;2023-07-13T08:24:46;19.70;99.90
52965;DHT22;42923;53.220;6.528;2023-07-13T08:27:21;19.80;99.90
52965;DHT22;42923;53.220;6.528;2023-07-13T08:29:48;19.90;99.90
52965;DHT22;42923;53.220;6.528;2023-07-13T08:32:14;20.10;99.90
52965;DHT22;42923;53.220;6.528;2023-07-13T08:34:40;20.10;99.90
52965;DHT22;42923;53.220;6.528;2023-07-13T08:37:07;20.00;99.90
52965;DHT22;42923;53.220;6.528;2023-07-13T08:39:33;19.90;99.90
52965;DHT22;42923;53.220;6.528;2023-07-13T08:42:07;19.70;99.90
52965;DHT22;42923;53.220;6.528;2023-07-13T08:44:50;19.60;99.90
52965;DHT22;42923;53.220;6.528;2023-07-13T08:47:22;19.40;99.90
52965;DHT22;42923;53.220;6.528;2023-07-13T08:49:50;19.40;99.90
52965;DHT22;42923;53.220;6.528;2023-07-13T08:52:36;19.60;99.90
52965;DHT22;42923;53.220;6.528;2023-07-13T08:55:13;19.80;99.90
52965;DHT22;42923;53.220;6.528;2023-07-13T08:57:42;20.10;99.90
52965;DHT22;42923;53.220;6.528;2023-07-13T09:00:11;20.50;99.90
52965;DHT22;42923;53.220;6.528;2023-07-13T09:02:50;20.70;99.90
52965;DHT22;42923;53.220;6.528;2023-07-13T09:05:41;20.80;99.90
52965;DHT22;42923;53.220;6.528;2023-07-13T09:11:33;20.70;99.90
52965;DHT22;42923;53.220;6.528;2023-07-13T09:16:40;20.20;99.90
52965;DHT22;42923;53.220;6.528;2023-07-13T09:19:09;20.10;99.90
52965;DHT22;42923;53.220;6.528;2023-07-13T09:21:41;20.00;99.90
52965;DHT22;42923;53.220;6.528;2023-07-13T09:26:43;20.30;99.90
52965;DHT22;42923;53.220;6.528;2023-07-13T09:29:29;20.60;99.90
52965;DHT22;42923;53.220;6.528;2023-07-13T09:32:02;20.80;99.90
52965;DHT22;42923;53.220;6.528;2023-07-13T09:34:29;21.10;99.90
52965;DHT22;42923;53.220;6.528;2023-07-13T09:36:56;21.40;99.90
52965;DHT22;42923;53.220;6.528;2023-07-13T09:39:29;21.70;99.90
52965;DHT22;42923;53.220;6.528;2023-07-13T09:42:18;22.00;99.90
52965;DHT22;42923;53.220;6.528;2023-07-13T09:47:22;22.10;99.90
52965;DHT22;42923;53.220;6.528;2023-07-13T09:49:57;22.00;99.90
52965;DHT22;42923;53.220;6.528;2023-07-13T09:52:24;22.00;99.90
52965;DHT22;42923;53.220;6.528;2023-07-13T09:54:53;22.10;99.90
52965;DHT22;42923;53.220;6.528;2023-07-13T09:57:25;22.20;99.90
52965;DHT22;42923;53.220;6.528;2023-07-13T09:59:53;22.20;99.90
52965;DHT22;42923;53.220;6.528;2023-07-13T10:02:34;22.10;99.90
52965;DHT22;42923;53.220;6.528;2023-07-13T10:05:03;21.80;99.90
52965;DHT22;42923;53.220;6.528;2023-07-13T10:07:31;21.50;99.90
52965;DHT22;42923;53.220;6.528;2023-07-13T10:10:00;21.20;99.90
52965;DHT22;42923;53.220;6.528;2023-07-13T10:12:30;21.10;99.90
52965;DHT22;42923;53.220;6.528;2023-07-13T10:15:02;21.20;99.90
52965;DHT22;42923;53.220;6.528;2023-07-13T10:17:31;21.50;99.90
52965;DHT22;42923;53.220;6.528;2023-07-13T10:20:05;21.80;99.90
52965;DHT22;42923;53.220;6.528;2023-07-13T10:22:59;22.20;99.90
52965;DHT22;42923;53.220;6.528;2023-07-13T10:25:34;22.30;99.90
52965;DHT22;42923;53.220;6.528;2023-07-13T10:28:27;22.50;99.90
52965;DHT22;42923;53.220;6.528;2023-07-13T10:30:56;22.70;99.90
52965;DHT22;42923;53.220;6.528;2023-07-13T10:33:24;23.20;99.90
52965;DHT22;42923;53.220;6.528;2023-07-13T10:35:52;23.60;99.90
52965;DHT22;42923;53.220;6.528;2023-07-13T10:38:22;23.80;99.90
52965;DHT22;42923;53.220;6.528;2023-07-13T10:40:57;23.80;99.90
52965;DHT22;42923;53.220;6.528;2023-07-13T10:43:27;23.60;99.90
52965;DHT22;42923;53.220;6.528;2023-07-13T10:45:54;23.20;99.90
52965;DHT22;42923;53.220;6.528;2023-07-13T10:48:21;22.90;99.90
52965;DHT22;42923;53.220;6.528;2023-07-13T10:50:51;23.00;99.90
52965;DHT22;42923;53.220;6.528;2023-07-13T10:53:29;23.30;99.90
52965;DHT22;42923;53.220;6.528;2023-07-13T10:56:01;23.70;99.90
52965;DHT22;42923;53.220;6.528;2023-07-13T10:58:34;24.10;99.90
52965;DHT22;42923;53.220;6.528;2023-07-13T11:01:13;24.40;99.90
52965;DHT22;42923;53.220;6.528;2023-07-13T11:08:56;25.10;99.90
52965;DHT22;42923;53.220;6.528;2023-07-13T11:18:53;25.40;98.30
52965;DHT22;42923;53.220;6.528;2023-07-13T11:21:34;25.30;99.90
52965;DHT22;42923;53.220;6.528;2023-07-13T11:26:43;25.90;99.90
52965;DHT22;42923;53.220;6.528;2023-07-13T11:31:59;26.00;93.00
52965;DHT22;42923;53.220;6.528;2023-07-13T11:34:37;26.00;91.90
52965;DHT22;42923;53.220;6.528;2023-07-13T11:37:03;26.20;92.10
52965;DHT22;42923;53.220;6.528;2023-07-13T11:39:37;26.40;92.60
52965;DHT22;42923;53.220;6.528;2023-07-13T11:42:12;26.30;91.10
52965;DHT22;42923;53.220;6.528;2023-07-13T11:44:50;26.20;93.70
52965;DHT22;42923;53.220;6.528;2023-07-13T11:47:19;26.20;85.30
52965;DHT22;42923;53.220;6.528;2023-07-13T11:49:53;26.00;90.00
52965;DHT22;42923;53.220;6.528;2023-07-13T11:52:26;26.10;87.10
52965;DHT22;42923;53.220;6.528;2023-07-13T11:54:57;26.10;90.00
52965;DHT22;42923;53.220;6.528;2023-07-13T11:57:29;26.50;89.10
52965;DHT22;42923;53.220;6.528;2023-07-13T11:59:58;26.70;89.60
52965;DHT22;42923;53.220;6.528;2023-07-13T12:02:34;26.70;87.00
52965;DHT22;42923;53.220;6.528;2023-07-13T12:05:03;26.50;83.40
52965;DHT22;42923;53.220;6.528;2023-07-13T12:07:32;26.40;85.20
52965;DHT22;42923;53.220;6.528;2023-07-13T12:10:16;26.50;82.90
52965;DHT22;42923;53.220;6.528;2023-07-13T12:13:01;26.60;83.20
52965;DHT22;42923;53.220;6.528;2023-07-13T12:15:48;26.90;83.70
52965;DHT22;42923;53.220;6.528;2023-07-13T12:18:29;27.30;81.10
52965;DHT22;42923;53.220;6.528;2023-07-13T12:20:57;27.40;80.30
52965;DHT22;42923;53.220;6.528;2023-07-13T12:23:36;27.50;78.80
52965;DHT22;42923;53.220;6.528;2023-07-13T12:26:04;27.20;75.70
52965;DHT22;42923;53.220;6.528;2023-07-13T12:28:37;26.80;75.10
52965;DHT22;42923;53.220;6.528;2023-07-13T12:31:05;26.20;75.70
52965;DHT22;42923;53.220;6.528;2023-07-13T12:33:33;25.80;76.80
52965;DHT22;42923;53.220;6.528;2023-07-13T12:36:04;25.60;76.40
52965;DHT22;42923;53.220;6.528;2023-07-13T12:38:32;25.40;75.10
52965;DHT22;42923;53.220;6.528;2023-07-13T12:40:58;25.20;76.50
52965;DHT22;42923;53.220;6.528;2023-07-13T12:43:25;25.10;79.30
52965;DHT22;42923;53.220;6.528;2023-07-13T12:46:02;25.10;80.20
52965;DHT22;42923;53.220;6.528;2023-07-13T12:48:28;24.50;79.60
52965;DHT22;42923;53.220;6.528;2023-07-13T12:50:55;24.20;82.50
52965;DHT22;42923;53.220;6.528;2023-07-13T12:53:31;24.20;84.30
52965;DHT22;42923;53.220;6.528;2023-07-13T12:56:02;24.30;84.40
52965;DHT22;42923;53.220;6.528;2023-07-13T12:58:38;24.30;86.20
52965;DHT22;42923;53.220;6.528;2023-07-13T13:01:05;24.50;85.90
52965;DHT22;42923;53.220;6.528;2023-07-13T13:03:45;24.70;86.10
52965;DHT22;42923;53.220;6.528;2023-07-13T13:08:51;24.10;84.20
52965;DHT22;42923;53.220;6.528;2023-07-13T13:11:18;23.90;89.10
52965;DHT22;42923;53.220;6.528;2023-07-13T13:13:45;24.10;87.70
52965;DHT22;42923;53.220;6.528;2023-07-13T13:18:40;24.40;91.20
52965;DHT22;42923;53.220;6.528;2023-07-13T13:21:06;24.70;90.40
52965;DHT22;42923;53.220;6.528;2023-07-13T13:23:32;24.90;89.30
52965;DHT22;42923;53.220;6.528;2023-07-13T13:25:58;25.00;87.40
52965;DHT22;42923;53.220;6.528;2023-07-13T13:28:24;24.80;84.10
52965;DHT22;42923;53.220;6.528;2023-07-13T13:30:51;24.50;83.00
52965;DHT22;42923;53.220;6.528;2023-07-13T13:33:18;24.50;85.70
52965;DHT22;42923;53.220;6.528;2023-07-13T13:35:45;24.40;85.30
52965;DHT22;42923;53.220;6.528;2023-07-13T13:38:12;24.10;89.70
52965;DHT22;42923;53.220;6.528;2023-07-13T13:40:41;24.20;91.70
52965;DHT22;42923;53.220;6.528;2023-07-13T13:43:26;24.60;92.20
52965;DHT22;42923;53.220;6.528;2023-07-13T13:45:55;24.60;92.20
52965;DHT22;42923;53.220;6.528;2023-07-13T13:48:31;24.30;91.20
52965;DHT22;42923;53.220;6.528;2023-07-13T13:50:58;24.30;93.40
52965;DHT22;42923;53.220;6.528;2023-07-13T13:53:25;24.50;93.60
52965;DHT22;42923;53.220;6.528;2023-07-13T13:55:51;24.70;92.50
52965;DHT22;42923;53.220;6.528;2023-07-13T13:58:21;24.90;92.70
52965;DHT22;42923;53.220;6.528;2023-07-13T14:00:47;25.20;92.10
52965;DHT22;42923;53.220;6.528;2023-07-13T14:03:16;25.50;91.40
52965;DHT22;42923;53.220;6.528;2023-07-13T14:05:42;25.60;88.60
52965;DHT22;42923;53.220;6.528;2023-07-13T14:08:16;25.50;84.70
52965;DHT22;42923;53.220;6.528;2023-07-13T14:10:47;25.20;87.40
52965;DHT22;42923;53.220;6.528;2023-07-13T14:13:20;25.40;89.50
52965;DHT22;42923;53.220;6.528;2023-07-13T14:15:47;25.60;86.70
52965;DHT22;42923;53.220;6.528;2023-07-13T14:18:13;25.50;85.40
52965;DHT22;42923;53.220;6.528;2023-07-13T14:20:44;25.50;81.50
52965;DHT22;42923;53.220;6.528;2023-07-13T14:23:15;25.40;84.60
52965;DHT22;42923;53.220;6.528;2023-07-13T14:25:42;25.50;83.60
52965;DHT22;42923;53.220;6.528;2023-07-13T14:28:23;25.50;80.90
52965;DHT22;42923;53.220;6.528;2023-07-13T14:30:51;25.30;81.50
52965;DHT22;42923;53.220;6.528;2023-07-13T14:33:17;25.10;81.90
52965;DHT22;42923;53.220;6.528;2023-07-13T14:35:43;25.20;83.20
52965;DHT22;42923;53.220;6.528;2023-07-13T14:38:16;25.50;83.40
52965;DHT22;42923;53.220;6.528;2023-07-13T14:40:42;25.40;81.30
52965;DHT22;42923;53.220;6.528;2023-07-13T14:43:14;25.30;80.70
52965;DHT22;42923;53.220;6.528;2023-07-13T14:45:43;25.20;82.20
52965;DHT22;42923;53.220;6.528;2023-07-13T14:48:21;25.40;84.50
52965;DHT22;42923;53.220;6.528;2023-07-13T14:50:54;25.80;83.80
52965;DHT22;42923;53.220;6.528;2023-07-13T14:53:20;25.70;81.90
52965;DHT22;42923;53.220;6.528;2023-07-13T14:55:46;25.40;80.80
52965;DHT22;42923;53.220;6.528;2023-07-13T14:58:12;24.70;81.10
52965;DHT22;42923;53.220;6.528;2023-07-13T15:00:40;24.10;83.70
52965;DHT22;42923;53.220;6.528;2023-07-13T15:03:18;24.00;87.30
52965;DHT22;42923;53.220;6.528;2023-07-13T15:05:47;24.40;87.30
52965;DHT22;42923;53.220;6.528;2023-07-13T15:08:13;24.50;86.30
52965;DHT22;42923;53.220;6.528;2023-07-13T15:10:40;24.50;85.10
52965;DHT22;42923;53.220;6.528;2023-07-13T15:13:18;24.50;85.10
52965;DHT22;42923;53.220;6.528;2023-07-13T15:15:50;24.30;84.10
52965;DHT22;42923;53.220;6.528;2023-07-13T15:18:20;23.80;87.40
52965;DHT22;42923;53.220;6.528;2023-07-13T15:20:48;23.60;88.60
52965;DHT22;42923;53.220;6.528;2023-07-13T15:23:16;23.50;90.10
52965;DHT22;42923;53.220;6.528;2023-07-13T15:25:43;23.70;90.40
52965;DHT22;42923;53.220;6.528;2023-07-13T15:28:11;23.60;89.70
52965;DHT22;42923;53.220;6.528;2023-07-13T15:30:46;23.90;90.50
52965;DHT22;42923;53.220;6.528;2023-07-13T15:33:16;24.10;91.00
52965;DHT22;42923;53.220;6.528;2023-07-13T15:35:45;24.00;90.50
52965;DHT22;42923;53.220;6.528;2023-07-13T15:38:23;23.70;89.50
52965;DHT22;42923;53.220;6.528;2023-07-13T15:40:50;23.50;91.70
52965;DHT22;42923;53.220;6.528;2023-07-13T15:43:17;24.10;92.10
52965;DHT22;42923;53.220;6.528;2023-07-13T15:45:44;24.40;90.00
52965;DHT22;42923;53.220;6.528;2023-07-13T15:48:20;24.60;88.90
52965;DHT22;42923;53.220;6.528;2023-07-13T15:50:49;24.90;88.00
52965;DHT22;42923;53.220;6.528;2023-07-13T15:53:20;24.90;88.10
52965;DHT22;42923;53.220;6.528;2023-07-13T15:55:48;25.10;88.80
52965;DHT22;42923;53.220;6.528;2023-07-13T15:58:15;25.60;86.90
52965;DHT22;42923;53.220;6.528;2023-07-13T16:00:41;25.80;85.30
52965;DHT22;42923;53.220;6.528;2023-07-13T16:03:08;25.90;83.80
52965;DHT22;42923;53.220;6.528;2023-07-13T16:05:34;25.60;83.80
52965;DHT22;42923;53.220;6.528;2023-07-13T16:08:01;24.90;83.00
52965;DHT22;42923;53.220;6.528;2023-07-13T16:10:35;24.40;85.70
52965;DHT22;42923;53.220;6.528;2023-07-13T16:13:03;24.00;87.50
52965;DHT22;42923;53.220;6.528;2023-07-13T16:15:30;23.60;87.70
52965;DHT22;42923;53.220;6.528;2023-07-13T16:17:57;23.10;89.70
52965;DHT22;42923;53.220;6.528;2023-07-13T16:20:23;22.70;91.00
52965;DHT22;42923;53.220;6.528;2023-07-13T16:22:52;22.40;92.80